createdAt,value
2023-04-18T00:00:49.436Z,22.50
2023-04-18T00:05:52.434Z,22.50
2023-04-18T00:10:55.241Z,22.00
2023-04-18T00:15:58.054Z,62.70
2023-04-18T00:21:00.727Z,33.60
2023-04-18T00:26:03.508Z,24.40
2023-04-18T00:31:06.261Z,26.40
2023-04-18T00:36:10.176Z,22.60
2023-04-18T00:41:12.969Z,26.00
2023-04-18T00:46:15.889Z,23.40
2023-04-18T00:51:19.774Z,36.40
2023-04-18T00:56:24.024Z,28.00
2023-04-18T01:01:27.070Z,19.00
2023-04-18T01:06:30.152Z,29.30
2023-04-18T01:11:33.048Z,25.10
2023-04-18T01:16:37.211Z,31.00
2023-04-18T01:21:43.978Z,22.70
2023-04-18T01:26:50.055Z,23.80
2023-04-18T01:31:53.763Z,21.30
2023-04-18T01:36:56.440Z,29.10
2023-04-18T01:42:00.175Z,18.90
2023-04-18T01:47:03.181Z,21.30
2023-04-18T01:57:08.879Z,27.50
2023-04-18T02:02:11.553Z,25.80
2023-04-18T02:07:14.509Z,23.40
2023-04-18T02:12:17.236Z,24.40
2023-04-18T02:17:23.712Z,24.50
2023-04-18T02:22:26.601Z,21.20
2023-04-18T02:27:29.299Z,20.10
2023-04-18T02:32:32.049Z,21.50
2023-04-18T02:37:35.008Z,20.00
2023-04-18T02:42:37.802Z,25.70
2023-04-18T02:47:53.675Z,25.60
2023-04-18T02:52:58.493Z,22.40
2023-04-18T02:58:01.260Z,22.00
2023-04-18T03:03:04.136Z,22.00
2023-04-18T03:08:07.139Z,20.10
2023-04-18T03:13:09.972Z,20.60
2023-04-18T03:18:12.769Z,24.70
2023-04-18T03:23:15.502Z,23.20
2023-04-18T03:28:18.371Z,24.10
2023-04-18T03:33:21.062Z,26.10
2023-04-18T03:38:23.779Z,25.10
2023-04-18T03:43:26.676Z,33.90
2023-04-18T03:48:29.869Z,29.10
2023-04-18T03:58:35.275Z,28.10
2023-04-18T04:03:38.123Z,30.90
2023-04-18T04:08:41.722Z,23.70
2023-04-18T04:13:44.622Z,30.10
2023-04-18T04:18:47.516Z,30.70
2023-04-18T04:23:50.650Z,27.10
2023-04-18T04:33:58.547Z,26.80
2023-04-18T04:39:04.281Z,24.50
2023-04-18T04:44:07.354Z,24.70
2023-04-18T04:49:10.662Z,19.80
2023-04-18T04:54:14.088Z,25.10
2023-04-18T04:59:17.664Z,26.40
2023-04-18T05:04:20.541Z,24.80
2023-04-18T05:09:23.429Z,20.90
2023-04-18T05:14:26.418Z,28.80
2023-04-18T05:19:29.073Z,30.20
2023-04-18T05:24:32.844Z,23.40
2023-04-18T05:29:35.534Z,32.00
2023-04-18T05:34:38.974Z,31.70
2023-04-18T05:39:42.164Z,31.30
2023-04-18T05:44:44.962Z,29.20
2023-04-18T05:49:47.821Z,32.70
2023-04-18T05:54:51.076Z,45.80
2023-04-18T05:59:54.343Z,55.10
2023-04-18T06:04:57.583Z,32.70
2023-04-18T06:10:01.558Z,32.60
2023-04-18T06:15:06.146Z,37.70
2023-04-18T06:20:09.842Z,29.50
2023-04-18T06:25:13.032Z,26.70
2023-04-18T06:35:18.911Z,27.00
2023-04-18T06:40:21.921Z,23.50
2023-04-18T06:45:25.977Z,28.90
2023-04-18T06:50:29.475Z,26.70
2023-04-18T06:55:32.476Z,25.10
2023-04-18T07:00:35.498Z,25.80
2023-04-18T07:10:41.517Z,22.50
2023-04-18T07:20:48.130Z,22.00
2023-04-18T07:25:56.197Z,19.30
2023-04-18T07:31:01.260Z,19.90
2023-04-18T07:36:08.727Z,20.10
2023-04-18T07:41:11.511Z,22.90
2023-04-18T07:46:16.944Z,18.20
2023-04-18T07:51:22.490Z,18.50
2023-04-18T07:56:28.059Z,23.70
2023-04-18T08:01:33.207Z,20.20
2023-04-18T08:06:39.618Z,14.10
2023-04-18T08:11:51.668Z,20.00
2023-04-18T08:16:59.974Z,17.90
2023-04-18T08:22:27.080Z,17.60
2023-04-18T08:27:37.810Z,15.90
2023-04-18T08:32:42.820Z,12.90
2023-04-18T08:37:46.128Z,12.70
2023-04-18T08:43:04.859Z,10.50
2023-04-18T08:48:48.964Z,13.00
2023-04-18T08:53:56.964Z,10.70
2023-04-18T08:59:01.275Z,11.10
2023-04-18T09:04:06.355Z,12.80
2023-04-18T09:09:29.809Z,10.90
2023-04-18T09:14:47.330Z,9.80
2023-04-18T09:25:49.024Z,11.00
2023-04-18T09:30:52.873Z,11.00
2023-04-18T09:36:21.287Z,9.30
2023-04-18T09:41:30.560Z,9.40
2023-04-18T09:46:49.981Z,9.70
2023-04-18T09:51:59.436Z,9.90
2023-04-18T09:57:06.985Z,9.70
2023-04-18T10:02:29.750Z,10.00
2023-04-18T10:13:06.724Z,9.90
2023-04-18T10:18:17.856Z,11.40
2023-04-18T10:23:35.952Z,15.60
2023-04-18T10:29:09.769Z,14.50
2023-04-18T10:34:28.433Z,14.70
2023-04-18T10:39:53.178Z,13.90
2023-04-18T10:45:26.397Z,10.80
2023-04-18T10:50:36.965Z,15.10
2023-04-18T10:55:48.785Z,10.00
2023-04-18T11:06:16.465Z,9.10
2023-04-18T11:11:20.645Z,12.20
2023-04-18T11:16:32.000Z,10.40
2023-04-18T11:21:34.772Z,14.90
2023-04-18T11:26:38.494Z,11.50
2023-04-18T11:31:41.700Z,10.00
2023-04-18T11:36:48.685Z,10.70
2023-04-18T11:41:51.523Z,13.00
2023-04-18T11:46:56.635Z,11.30
2023-04-18T11:52:13.651Z,14.30
2023-04-18T11:57:24.624Z,12.90
2023-04-18T12:02:42.311Z,16.60
2023-04-18T12:07:45.938Z,10.80
2023-04-18T12:12:53.710Z,10.50
2023-04-18T12:18:04.331Z,13.20
2023-04-18T12:23:07.847Z,10.80
2023-04-18T12:28:15.876Z,10.40
2023-04-18T12:33:20.561Z,12.70
2023-04-18T12:38:24.409Z,12.70
2023-04-18T12:43:27.231Z,13.90
2023-04-18T12:48:29.967Z,10.50
2023-04-18T12:53:32.751Z,12.00
2023-04-18T12:58:35.946Z,13.70
2023-04-18T13:03:39.174Z,11.00
2023-04-18T13:08:43.226Z,9.50
2023-04-18T13:13:46.666Z,12.10
2023-04-18T13:18:49.461Z,11.30
2023-04-18T13:23:52.149Z,12.40
2023-04-18T13:33:58.284Z,13.30
2023-04-18T13:39:02.336Z,12.70
2023-04-18T13:44:05.112Z,13.90
2023-04-18T13:54:10.611Z,31.50
2023-04-18T14:04:16.943Z,19.80
2023-04-18T14:09:19.832Z,19.60
2023-04-18T14:19:27.404Z,19.00
2023-04-18T14:24:30.114Z,18.30
2023-04-18T14:34:36.790Z,16.70
2023-04-18T14:39:41.183Z,16.30
2023-04-18T14:44:43.873Z,18.80
2023-04-18T14:49:46.600Z,20.60
2023-04-18T14:54:49.338Z,17.00
2023-04-18T14:59:54.644Z,15.20
2023-04-18T15:04:57.492Z,19.40
2023-04-18T15:10:00.498Z,15.10
2023-04-18T15:15:03.391Z,14.90
2023-04-18T15:25:10.270Z,19.50
2023-04-18T15:35:15.936Z,25.50
2023-04-18T15:40:18.897Z,28.40
2023-04-18T15:50:24.944Z,19.50
2023-04-18T15:55:27.812Z,33.30
2023-04-18T16:00:30.608Z,20.90
2023-04-18T16:05:33.400Z,30.20
2023-04-18T16:15:41.798Z,26.30
2023-04-18T16:20:44.600Z,51.50
2023-04-18T16:25:47.566Z,33.50
2023-04-18T16:35:53.243Z,54.30
2023-04-18T16:41:01.644Z,44.00
2023-04-18T16:46:05.748Z,46.30
2023-04-18T16:51:08.533Z,45.80
2023-04-18T16:56:11.262Z,49.50
2023-04-18T17:01:13.979Z,39.90
2023-04-18T17:06:19.495Z,41.00
2023-04-18T17:11:22.268Z,31.90
2023-04-18T17:16:25.452Z,29.40
2023-04-18T17:21:28.333Z,48.70
2023-04-18T17:26:31.451Z,37.60
2023-04-18T17:31:34.390Z,25.50
2023-04-18T17:41:39.890Z,27.30
2023-04-18T17:46:42.615Z,22.10
2023-04-18T17:51:45.677Z,31.40
2023-04-18T18:01:51.169Z,27.60
2023-04-18T18:17:01.472Z,25.80
2023-04-18T18:22:04.306Z,22.20
2023-04-18T18:27:07.031Z,30.40
2023-04-18T18:32:09.748Z,29.20
2023-04-18T18:37:12.536Z,32.50
2023-04-18T18:42:16.066Z,23.40
2023-04-18T18:47:18.873Z,28.70
2023-04-18T18:57:27.693Z,22.30
2023-04-18T19:02:30.786Z,24.20
2023-04-18T19:07:33.842Z,29.30
2023-04-18T19:12:37.775Z,30.20
2023-04-18T19:17:40.573Z,37.20
2023-04-18T19:22:43.661Z,32.20
2023-04-18T19:27:46.703Z,32.40
2023-04-18T19:32:49.429Z,29.80
2023-04-18T19:37:52.119Z,28.40
2023-04-18T19:42:54.907Z,32.80
2023-04-18T19:47:57.690Z,24.40
2023-04-18T19:53:00.397Z,42.00
2023-04-18T19:58:03.701Z,30.60
2023-04-18T20:08:09.895Z,26.30
2023-04-18T20:18:15.379Z,44.20
2023-04-18T20:23:18.476Z,34.90
2023-04-18T20:33:23.902Z,35.30
2023-04-18T20:38:29.561Z,26.50
2023-04-18T20:43:37.389Z,22.80
2023-04-18T20:48:40.226Z,29.40
2023-04-18T20:53:42.995Z,22.10
2023-04-18T20:58:45.782Z,26.90
2023-04-18T21:03:49.090Z,22.00
2023-04-18T21:08:52.396Z,20.60
2023-04-18T21:18:57.873Z,19.20
2023-04-18T21:24:01.612Z,18.60
2023-04-18T21:29:05.000Z,24.10
2023-04-18T21:34:07.864Z,17.10
2023-04-18T21:39:10.580Z,23.60
2023-04-18T21:44:13.575Z,22.00
2023-04-18T21:54:19.394Z,12.80
2023-04-18T21:59:22.160Z,27.40
2023-04-18T22:04:26.775Z,16.90
2023-04-18T22:09:29.820Z,25.20
2023-04-18T22:14:32.615Z,22.70
2023-04-18T22:19:35.798Z,17.90
2023-04-18T22:29:41.125Z,25.40
2023-04-18T22:34:44.811Z,28.20
2023-04-18T22:39:47.570Z,23.40
2023-04-18T22:44:50.439Z,21.20
2023-04-18T22:49:53.876Z,24.50
2023-04-18T22:54:56.655Z,17.80
2023-04-18T22:59:59.384Z,17.00
2023-04-18T23:05:02.531Z,13.50
2023-04-18T23:15:09.832Z,18.20
2023-04-18T23:20:13.809Z,22.50
2023-04-18T23:25:16.648Z,21.40
2023-04-18T23:30:19.370Z,15.30
2023-04-18T23:35:22.089Z,18.60
2023-04-18T23:40:25.382Z,19.90
2023-04-18T23:50:35.858Z,21.10
2023-04-18T23:55:38.686Z,11.80
